Eagle Torrance — 9VMG5 — position and weather

sailwx.info

Track history (hours):
 
Tides and Currents Weather Stations Pressure Air Temp Water Temp Dewpoint Dewpoint Depression Visibility Wind Speed Wind Dir Waves Ship Positions

Eagle Torrance

Last reported at 2018-Mar-27 17:18 UTC. Time now 2018-Apr-24 12:43 UTC.
Position N 27°49' W 092°56'.
Warning: this ship's position is 27 days out of date.

Length 246 m; draft 8.5 m.

Type: Tanker. MMSI: 565526000.

Date/timePositionNaut miles runAvg speedWind from/ knotsBaromVisibWave heightAir tempDewpointWater temp
2018-Mar-27 17:18N 27°49' W 092°56'411.1
2018-Mar-27 16:58N 27°49' W 093°00'911.2
2018-Mar-27 16:07N 27°48' W 093°11'211.1
2018-Mar-27 15:58N 27°48' W 093°13'510.9
2018-Mar-27 15:30N 27°48' W 093°19'610.9
2018-Mar-27 14:59N 27°47' W 093°25'510.6
2018-Mar-27 14:29N 27°47' W 093°31'510.8
2018-Mar-27 14:01N 27°46' W 093°37'610.8
2018-Mar-27 13:29N 27°46' W 093°43'711.1
2018-Mar-27 12:52N 27°45' W 093°51'411.3
2018-Mar-27 12:29N 27°45' W 093°56'611.3
2018-Mar-27 11:57N 27°44' W 094°02'611.2
2018-Mar-27 11:27N 27°44' W 094°09'511.4
2018-Mar-27 11:00N 27°44' W 094°14'611.5
2018-Mar-27 10:30N 27°44' W 094°21'5 7.9
2018-Mar-27 09:52N 27°47' W 094°25'411.1
2018-Mar-27 09:29N 27°51' W 094°25'611.1
2018-Mar-27 08:59N 27°57' W 094°25'511.2
2018-Mar-27 08:30N 28°02' W 094°25'611.2
2018-Mar-27 08:00N 28°07' W 094°26'611.2
2018-Mar-27 07:30N 28°13' W 094°25'611.3
2018-Mar-27 07:00N 28°19' W 094°25'611.2
2018-Mar-27 06:26N 28°25' W 094°25'511.4
2018-Mar-27 06:00N 28°30' W 094°25'611.4
2018-Mar-27 05:31N 28°36' W 094°25'611.5
2018-Mar-27 05:00N 28°41' W 094°26'611.8
2018-Mar-27 04:31N 28°47' W 094°25'611.8
2018-Mar-27 04:00N 28°53' W 094°25'612.7
2018-Mar-27 03:30N 28°60' W 094°25'611.8
2018-Mar-27 03:01N 29°05' W 094°25'3 6.2
2018-Mar-27 02:31N 29°08' W 094°28'5 9.7
2018-Mar-27 02:00N 29°12' W 094°31'510.1
2018-Mar-27 01:31N 29°15' W 094°35'510.1
2018-Mar-27 00:59N 29°19' W 094°39'610.8
2018-Mar-27 00:28N 29°21' W 094°45'510.0
2018-Mar-27 00:00N 29°24' W 094°49'611.0
2018-Mar-26 23:30N 29°29' W 094°52'511.0
2018-Mar-26 23:01N 29°34' W 094°55'510.4
2018-Mar-26 22:31N 29°38' W 094°58'4 8.8
2018-Mar-26 22:00N 29°42' W 095°00'3 6.7
2018-Mar-26 21:31N 29°44' W 095°03'2 4.9
2018-Mar-26 21:00N 29°45' W 095°06'2 3.7
2018-Mar-26 20:31N 29°44' W 095°08'0 0.0
2018-Mar-26 02:18N 29°44' W 095°08'0 0.0
2018-Mar-24 19:24N 29°44' W 095°08'0 0.4
2018-Mar-24 19:00N 29°44' W 095°07'1 2.8
2018-Mar-24 18:30N 29°45' W 095°06'2 4.1
2018-Mar-24 18:00N 29°45' W 095°04'3 5.8
2018-Mar-24 17:30N 29°43' W 095°01'4 7.4
2018-Mar-24 17:01N 29°40' W 094°59'4 8.6
2018-Mar-24 16:31N 29°36' W 094°57'5 9.8
2018-Mar-24 16:00N 29°32' W 094°54'510.6
2018-Mar-24 15:30N 29°27' W 094°51'611.6
2018-Mar-24 15:00N 29°22' W 094°48'611.3
2018-Mar-24 14:30N 29°20' W 094°41'510.8
2018-Mar-24 14:00N 29°18' W 094°36'4 7.9
2018-Mar-24 13:30N 29°15' W 094°33'3 6.5
2018-Mar-24 13:00N 29°13' W 094°30'2 4.1
2018-Mar-24 12:31N 29°13' W 094°32'3 6.5
2018-Mar-24 12:00N 29°14' W 094°35'2 4.4
2018-Mar-24 11:30N 29°13' W 094°38'0 0.0
2018-Mar-24 11:00N 29°13' W 094°38'0 0.0
2018-Mar-24 10:30N 29°13' W 094°38'0 0.0
2018-Mar-24 09:59N 29°13' W 094°38'0 0.0
2018-Mar-24 09:29N 29°13' W 094°38'0 0.0
2018-Mar-24 08:59N 29°13' W 094°38'0 0.0
2018-Mar-24 08:30N 29°13' W 094°38'0 0.0
2018-Mar-24 08:00N 29°13' W 094°38'0 0.0
2018-Mar-24 07:30N 29°13' W 094°38'0 0.0
2018-Mar-24 07:00N 29°13' W 094°38'0 0.0
2018-Mar-24 06:30N 29°13' W 094°38'0 0.0
2018-Mar-24 06:00N 29°13' W 094°38'0 0.0
2018-Mar-24 05:30N 29°13' W 094°38'0 0.0
2018-Mar-24 05:00N 29°13' W 094°38'0 0.0
2018-Mar-24 04:29N 29°13' W 094°38'0 0.0
2018-Mar-24 03:59N 29°13' W 094°38'0 0.0
2018-Mar-24 03:29N 29°13' W 094°38'0 0.0
2018-Mar-24 03:00N 29°13' W 094°38'0 0.0
2018-Mar-24 02:30N 29°13' W 094°38'0 0.0
2018-Mar-24 02:00N 29°13' W 094°38'0 0.0
2018-Mar-24 01:26N 29°13' W 094°38'0 0.0
2018-Mar-24 00:59N 29°13' W 094°38'0 0.0
2018-Mar-24 00:29N 29°13' W 094°38'0 0.0
2018-Mar-23 23:59N 29°13' W 094°38'0 0.0
2018-Mar-23 23:30N 29°13' W 094°38'0 0.0
2018-Mar-23 22:59N 29°13' W 094°38'0 0.0
2018-Mar-23 22:26N 29°13' W 094°38'0 0.0
2018-Mar-23 22:00N 29°13' W 094°38'0 0.0
2018-Mar-23 21:30N 29°13' W 094°38'0 0.0
2018-Mar-23 21:00N 29°13' W 094°38'0 0.0
2018-Mar-23 20:29N 29°13' W 094°38'0 0.0
2018-Mar-23 19:59N 29°13' W 094°38'0 0.0
2018-Mar-23 19:29N 29°13' W 094°38'0 0.0
2018-Mar-23 19:00N 29°13' W 094°38'0 0.0
2018-Mar-23 18:27N 29°13' W 094°38'0 0.0
2018-Mar-23 17:56N 29°13' W 094°38'0 0.0
2018-Mar-23 17:29N 29°13' W 094°38'0 0.0
2018-Mar-23 16:59N 29°13' W 094°38'0 0.0
2018-Mar-23 16:24N 29°13' W 094°38'0 0.0
2018-Mar-23 16:00N 29°13' W 094°38'0 0.0
2018-Mar-23 15:26N 29°13' W 094°38'0 0.0
2018-Mar-23 14:59N 29°13' W 094°38'0 0.0
2018-Mar-23 14:29N 29°13' W 094°38'0 0.0
2018-Mar-23 13:59N 29°13' W 094°38'0 0.0
2018-Mar-23 13:29N 29°13' W 094°38'0 0.0
2018-Mar-23 12:57N 29°13' W 094°38'0 0.0
2018-Mar-23 12:29N 29°13' W 094°38'0 0.0
2018-Mar-23 11:59N 29°13' W 094°38'0 0.0
2018-Mar-23 11:29N 29°13' W 094°38'0 0.0
2018-Mar-23 10:59N 29°13' W 094°38'0 0.0
2018-Mar-23 10:29N 29°13' W 094°38'0 0.0
2018-Mar-23 09:59N 29°13' W 094°38'0 0.1
2018-Mar-23 09:30N 29°13' W 094°38'0 0.0
2018-Mar-23 09:00N 29°13' W 094°38'0 0.0
2018-Mar-23 08:30N 29°13' W 094°38'0 0.0
2018-Mar-23 08:00N 29°13' W 094°38'0 0.0
2018-Mar-23 07:29N 29°13' W 094°38'0 0.0
2018-Mar-23 06:59N 29°13' W 094°38'0 0.1
2018-Mar-23 06:29N 29°13' W 094°38'0 0.0
2018-Mar-23 05:59N 29°13' W 094°38'0 0.0
2018-Mar-23 05:30N 29°13' W 094°38'0 0.0
2018-Mar-23 04:59N 29°13' W 094°38'0 0.0
2018-Mar-23 04:29N 29°13' W 094°38'0 0.0
2018-Mar-23 03:57N 29°13' W 094°38'0 0.0
2018-Mar-23 03:29N 29°13' W 094°38'0 0.0
2018-Mar-23 03:00N 29°13' W 094°38'0 0.0
2018-Mar-23 02:29N 29°13' W 094°38'0 0.0
2018-Mar-23 01:59N 29°13' W 094°38'0 0.0
2018-Mar-23 01:29N 29°13' W 094°38'0 0.0
2018-Mar-23 00:59N 29°13' W 094°38'0 0.0
2018-Mar-23 00:29N 29°13' W 094°38'0 0.0
2018-Mar-22 23:59N 29°13' W 094°38'0 0.0
2018-Mar-22 23:27N 29°13' W 094°38'0 0.0
2018-Mar-22 22:56N 29°13' W 094°38'0 0.0
2018-Mar-22 22:29N 29°13' W 094°38'0 0.0
2018-Mar-22 21:59N 29°13' W 094°38'0 0.0
2018-Mar-22 21:29N 29°13' W 094°38'0 0.0
2018-Mar-22 20:50N 29°13' W 094°38'0 0.0
2018-Mar-22 20:29N 29°13' W 094°38'0 0.0
2018-Mar-22 19:53N 29°13' W 094°38'0 0.0
2018-Mar-22 19:29N 29°13' W 094°38'0 0.0
2018-Mar-22 18:56N 29°13' W 094°38'0 0.0
2018-Mar-22 18:29N 29°13' W 094°38'0 0.0
2018-Mar-22 17:59N 29°13' W 094°38'0 0.0
2018-Mar-22 17:26N 29°13' W 094°38'0 0.0
2018-Mar-22 16:59N 29°13' W 094°38'0 0.0
2018-Mar-22 16:29N 29°13' W 094°38'0 0.0
2018-Mar-22 15:59N 29°13' W 094°38'0 0.0
2018-Mar-22 15:29N 29°13' W 094°38'0 0.0
2018-Mar-22 14:53N 29°13' W 094°38'0 0.0
2018-Mar-22 14:29N 29°13' W 094°38'0 0.0
2018-Mar-22 14:00N 29°13' W 094°38'0 0.0
2018-Mar-22 13:26N 29°13' W 094°38'0 0.0
2018-Mar-22 12:59N 29°13' W 094°38'0 0.0
2018-Mar-22 12:29N 29°13' W 094°38'0 0.1
2018-Mar-22 11:59N 29°13' W 094°38'0 0.1
2018-Mar-22 10:59N 29°13' W 094°38'0 0.0
2018-Mar-22 10:29N 29°13' W 094°38'0 0.0
2018-Mar-22 09:59N 29°13' W 094°38'0 0.0
2018-Mar-22 09:26N 29°13' W 094°38'0 0.0
2018-Mar-22 09:00N 29°13' W 094°38'0 0.0
2018-Mar-22 08:29N 29°13' W 094°38'0 0.0
2018-Mar-22 07:59N 29°13' W 094°38'0 0.0
2018-Mar-22 07:29N 29°13' W 094°38'0 0.0
2018-Mar-22 06:59N 29°13' W 094°38'0 0.0
2018-Mar-22 06:29N 29°13' W 094°38'0 0.1
2018-Mar-22 05:59N 29°13' W 094°38'0 0.1
2018-Mar-22 05:29N 29°13' W 094°38'0 0.0
2018-Mar-22 05:00N 29°13' W 094°38'0 0.0
2018-Mar-22 04:29N 29°13' W 094°38'0 0.1
2018-Mar-22 03:59N 29°13' W 094°38'0 0.0
2018-Mar-22 03:30N 29°13' W 094°38'0 0.0
2018-Mar-22 02:50N 29°13' W 094°38'0 0.0
2018-Mar-22 02:29N 29°13' W 094°38'0 0.0
2018-Mar-22 01:59N 29°13' W 094°38'0 0.0
2018-Mar-22 01:29N 29°13' W 094°38'0 0.0
2018-Mar-22 01:00N 29°13' W 094°38'0 0.0
2018-Mar-22 00:26N 29°13' W 094°38'0 0.0
2018-Mar-21 23:59N 29°13' W 094°38'0 0.0
2018-Mar-21 23:29N 29°13' W 094°38'0 0.0
2018-Mar-21 22:59N 29°13' W 094°38'0 0.0
2018-Mar-21 22:29N 29°13' W 094°38'0 0.0
2018-Mar-21 21:59N 29°13' W 094°38'0 0.0
2018-Mar-21 21:30N 29°13' W 094°38'0 0.0
2018-Mar-21 20:59N 29°13' W 094°38'0 0.0
2018-Mar-21 20:29N 29°13' W 094°38'0 0.0
2018-Mar-21 19:59N 29°13' W 094°38'0 0.0
2018-Mar-21 19:29N 29°13' W 094°38'0 0.0
2018-Mar-21 19:00N 29°13' W 094°38'0 0.1
2018-Mar-21 18:26N 29°13' W 094°38'0 0.0
2018-Mar-21 17:59N 29°13' W 094°38'0 0.0
2018-Mar-21 17:20N 29°13' W 094°38'0 0.0
2018-Mar-21 16:59N 29°13' W 094°38'0 0.1
2018-Mar-21 16:29N 29°13' W 094°38'0 0.1
2018-Mar-21 15:59N 29°13' W 094°38'0 0.0
2018-Mar-21 15:30N 29°13' W 094°38'0 0.1
2018-Mar-21 14:59N 29°13' W 094°38'0 0.1
2018-Mar-21 14:29N 29°13' W 094°38'0 0.0
2018-Mar-21 13:59N 29°13' W 094°38'0 0.0
2018-Mar-21 13:26N 29°13' W 094°38'0 0.0
2018-Mar-21 12:59N 29°13' W 094°38'0 0.0
2018-Mar-21 12:26N 29°13' W 094°38'0 0.1
2018-Mar-21 11:59N 29°13' W 094°38'0 0.1
2018-Mar-21 11:29N 29°13' W 094°38'0 0.0
2018-Mar-21 10:59N 29°13' W 094°38'0 0.0
2018-Mar-21 10:29N 29°13' W 094°38'0 0.0
2018-Mar-21 09:59N 29°13' W 094°38'0 0.0
2018-Mar-21 09:26N 29°13' W 094°38'0 0.0
2018-Mar-21 08:59N 29°13' W 094°38'0 0.0
2018-Mar-21 08:29N 29°13' W 094°38'0 0.0
2018-Mar-21 07:59N 29°13' W 094°38'0 0.0
2018-Mar-21 07:29N 29°13' W 094°38'0 0.0
2018-Mar-21 06:59N 29°13' W 094°38'0 0.0
2018-Mar-21 06:29N 29°13' W 094°38'0 0.0
2018-Mar-21 05:59N 29°13' W 094°38'0 0.0
2018-Mar-21 05:30N 29°13' W 094°38'0 0.0
2018-Mar-21 04:59N 29°13' W 094°38'0 0.0
2018-Mar-21 04:29N 29°13' W 094°38'0 0.0
2018-Mar-21 04:00N 29°13' W 094°38'0 0.0
2018-Mar-21 03:29N 29°13' W 094°38'0 0.0
2018-Mar-21 02:59N 29°13' W 094°38'0 0.0
2018-Mar-21 02:26N 29°13' W 094°38'0 0.0
2018-Mar-21 01:59N 29°13' W 094°38'0 0.0
2018-Mar-21 01:27N 29°13' W 094°38'0 0.0
2018-Mar-21 01:00N 29°13' W 094°38'0 0.0
2018-Mar-21 00:26N 29°13' W 094°38'0 0.0
2018-Mar-20 23:59N 29°13' W 094°38'0 0.0
2018-Mar-20 23:29N 29°13' W 094°38'0 0.0
2018-Mar-20 22:59N 29°13' W 094°38'0 0.0
2018-Mar-20 22:29N 29°13' W 094°38'0 0.0
2018-Mar-20 21:59N 29°13' W 094°38'0 0.0
2018-Mar-20 21:29N 29°13' W 094°38'0 0.0
2018-Mar-20 20:50N 29°13' W 094°38'0 0.0
2018-Mar-20 20:29N 29°13' W 094°38'0 0.0
2018-Mar-20 19:59N 29°13' W 094°38'0 0.0
2018-Mar-20 19:26N 29°13' W 094°38'0 0.0
2018-Mar-20 18:59N 29°13' W 094°38'0 0.0
2018-Mar-20 18:29N 29°13' W 094°38'0 0.1
2018-Mar-20 17:59N 29°13' W 094°38'0 0.1
2018-Mar-20 17:29N 29°13' W 094°38'0 0.0
2018-Mar-20 16:59N 29°13' W 094°38'0 0.0
2018-Mar-20 16:30N 29°13' W 094°38'0 0.0
2018-Mar-20 15:56N 29°13' W 094°38'0 0.0
2018-Mar-20 15:29N 29°13' W 094°38'0 0.1
2018-Mar-20 14:50N 29°13' W 094°38'0 0.0
2018-Mar-20 14:29N 29°13' W 094°38'0 0.0
2018-Mar-20 13:59N 29°13' W 094°38'0 0.1
2018-Mar-20 13:30N 29°13' W 094°38'0 0.0
2018-Mar-20 12:53N 29°13' W 094°38'0 0.0
2018-Mar-20 12:29N 29°13' W 094°38'0 0.0
2018-Mar-20 11:59N 29°13' W 094°38'0 0.0
2018-Mar-20 11:29N 29°13' W 094°38'0 0.0
2018-Mar-20 10:59N 29°13' W 094°38'0 0.0
2018-Mar-20 10:29N 29°13' W 094°38'0 0.0
2018-Mar-20 09:59N 29°13' W 094°38'0 0.0
2018-Mar-20 09:29N 29°13' W 094°38'0 0.0
2018-Mar-20 09:00N 29°13' W 094°38'0 0.0
2018-Mar-20 08:26N 29°13' W 094°38'0 0.0
2018-Mar-20 08:00N 29°13' W 094°38'0 0.0
2018-Mar-20 07:29N 29°13' W 094°38'0 0.0
2018-Mar-20 06:59N 29°13' W 094°38'0 0.0
2018-Mar-20 06:29N 29°13' W 094°38'0 0.0
2018-Mar-20 06:00N 29°13' W 094°38'0 0.1
2018-Mar-20 05:26N 29°13' W 094°38'0 0.1
2018-Mar-20 04:59N 29°13' W 094°38'0 0.0
2018-Mar-20 04:29N 29°13' W 094°38'0 0.0
2018-Mar-20 03:59N 29°13' W 094°38'0 0.0
2018-Mar-20 03:29N 29°13' W 094°38'0 0.0
2018-Mar-20 02:59N 29°13' W 094°38'0 0.0
2018-Mar-20 02:29N 29°13' W 094°38'0 0.0
2018-Mar-20 01:59N 29°13' W 094°38'0 0.0
2018-Mar-20 01:29N 29°13' W 094°38'0 0.0
2018-Mar-20 00:59N 29°13' W 094°38'0 0.0
2018-Mar-20 00:29N 29°13' W 094°38'0 0.0
2018-Mar-19 23:59N 29°13' W 094°38'0 0.0
2018-Mar-19 23:29N 29°13' W 094°38'0 0.0
2018-Mar-19 22:59N 29°13' W 094°38'0 0.1
2018-Mar-19 22:29N 29°13' W 094°38'0 0.0
2018-Mar-19 21:59N 29°13' W 094°38'0 0.0
2018-Mar-19 21:29N 29°13' W 094°38'0 0.0
2018-Mar-19 20:59N 29°13' W 094°38'0 0.0
2018-Mar-19 20:29N 29°13' W 094°38'0 0.0
2018-Mar-19 19:59N 29°13' W 094°38'0 0.0
2018-Mar-19 19:30N 29°13' W 094°38'0 0.0
2018-Mar-19 18:56N 29°13' W 094°38'0 0.0
2018-Mar-19 18:29N 29°13' W 094°38'0 0.0
2018-Mar-19 17:59N 29°13' W 094°38'0 0.0
2018-Mar-19 17:29N 29°13' W 094°38'0 0.0
2018-Mar-19 16:57N 29°13' W 094°38'0 0.0
2018-Mar-19 16:27N 29°13' W 094°38'0 0.0
2018-Mar-19 15:59N 29°13' W 094°38'0 0.0
2018-Mar-19 15:29N 29°13' W 094°38'0 0.0
2018-Mar-19 14:59N 29°13' W 094°38'0 0.0
2018-Mar-19 14:29N 29°13' W 094°38'0 0.1
2018-Mar-19 13:59N 29°13' W 094°38'0 0.0
2018-Mar-19 13:29N 29°13' W 094°38'0 0.2
2018-Mar-19 12:59N 29°13' W 094°38'0 0.1
2018-Mar-19 12:26N 29°13' W 094°38'0 0.0
2018-Mar-19 11:59N 29°13' W 094°38'0 0.1
2018-Mar-19 11:29N 29°13' W 094°38'0 0.1
2018-Mar-19 10:59N 29°13' W 094°38'0 0.1
2018-Mar-19 10:29N 29°13' W 094°38'0 0.0
2018-Mar-19 09:59N 29°13' W 094°38'0 0.0
2018-Mar-19 09:29N 29°13' W 094°38'0 0.0
2018-Mar-19 08:59N 29°13' W 094°38'0 0.0
2018-Mar-19 08:29N 29°13' W 094°38'0 0.0
2018-Mar-19 07:59N 29°13' W 094°38'0 0.0
2018-Mar-19 07:29N 29°13' W 094°38'0 0.0
2018-Mar-19 06:59N 29°13' W 094°38'0 0.0
2018-Mar-19 06:29N 29°13' W 094°38'0 0.1
2018-Mar-19 05:59N 29°13' W 094°38'0 0.0
2018-Mar-19 05:29N 29°13' W 094°38'0 0.0
2018-Mar-19 04:59N 29°13' W 094°38'0 0.0
2018-Mar-19 04:29N 29°13' W 094°38'0 0.0
2018-Mar-19 04:00N 29°13' W 094°38'0 0.0
2018-Mar-19 03:27N 29°13' W 094°38'0 0.0
2018-Mar-19 02:56N 29°13' W 094°38'0 0.0
2018-Mar-19 02:29N 29°13' W 094°38'0 0.0
2018-Mar-19 01:59N 29°13' W 094°38'0 0.0
2018-Mar-19 01:29N 29°13' W 094°38'0 0.0
2018-Mar-19 00:59N 29°13' W 094°38'0 0.0
2018-Mar-19 00:29N 29°13' W 094°38'0 0.0
2018-Mar-18 23:59N 29°13' W 094°38'0 0.0
2018-Mar-18 23:29N 29°13' W 094°38'0 0.0
2018-Mar-18 22:57N 29°13' W 094°38'0 0.0
2018-Mar-18 22:27N 29°13' W 094°38'0 0.1
2018-Mar-18 21:59N 29°13' W 094°38'0 0.1
2018-Mar-18 21:29N 29°13' W 094°38'0 0.0
2018-Mar-18 20:59N 29°13' W 094°38'0 0.0
2018-Mar-18 20:29N 29°13' W 094°38'0 0.0
2018-Mar-18 19:59N 29°13' W 094°38'0 0.1
2018-Mar-18 19:29N 29°13' W 094°38'0 0.0
2018-Mar-18 18:59N 29°13' W 094°38'0 0.0
2018-Mar-18 18:29N 29°13' W 094°38'0 0.0
2018-Mar-18 17:59N 29°13' W 094°38'0 0.0
2018-Mar-18 17:29N 29°13' W 094°38'0 0.0
2018-Mar-18 16:59N 29°13' W 094°38'0 0.0
2018-Mar-18 16:29N 29°13' W 094°38'0 0.0
2018-Mar-18 15:59N 29°13' W 094°38'0 0.0
2018-Mar-18 15:30N 29°13' W 094°38'0 0.0
2018-Mar-18 14:59N 29°13' W 094°38'0 0.0
2018-Mar-18 14:29N 29°13' W 094°38'0 0.0
2018-Mar-18 13:59N 29°13' W 094°38'0 0.0
2018-Mar-18 13:29N 29°13' W 094°38'0 0.0
2018-Mar-18 12:56N 29°13' W 094°38'0 0.1
2018-Mar-18 12:23N 29°13' W 094°38'0 0.0
2018-Mar-18 11:59N 29°13' W 094°38'0 0.0
2018-Mar-18 11:29N 29°13' W 094°38'0 0.0
2018-Mar-18 10:59N 29°13' W 094°38'0 0.0
2018-Mar-18 10:29N 29°13' W 094°38'0 0.0
2018-Mar-18 09:59N 29°13' W 094°38'0 0.0
2018-Mar-18 09:29N 29°13' W 094°38'0 0.0
2018-Mar-18 09:00N 29°13' W 094°38'0 0.0
2018-Mar-18 08:29N 29°13' W 094°38'0 0.0
2018-Mar-18 07:59N 29°13' W 094°38'0 0.0
2018-Mar-18 07:29N 29°13' W 094°38'0 0.0
2018-Mar-18 06:59N 29°13' W 094°38'0 0.0
2018-Mar-18 06:29N 29°13' W 094°38'0 0.0
2018-Mar-18 05:59N 29°13' W 094°38'0 0.0
2018-Mar-18 05:29N 29°13' W 094°38'0 0.0
2018-Mar-18 04:59N 29°13' W 094°38'0 0.0
2018-Mar-18 04:29N 29°13' W 094°38'0 0.0
2018-Mar-18 03:59N 29°13' W 094°38'0 0.0
2018-Mar-18 03:29N 29°13' W 094°38'0 0.0
2018-Mar-18 02:59N 29°13' W 094°38'0 0.0
2018-Mar-18 02:29N 29°13' W 094°38'0 0.0
2018-Mar-18 01:59N 29°13' W 094°38'0 0.0
2018-Mar-18 01:29N 29°13' W 094°38'0 0.1
2018-Mar-18 00:59N 29°13' W 094°38'0 0.0
2018-Mar-18 00:29N 29°13' W 094°38'0 0.0
2018-Mar-18 00:00N 29°13' W 094°38'0 0.0
2018-Mar-17 23:29N 29°13' W 094°38'0 0.0
2018-Mar-17 22:59N 29°13' W 094°38'0 0.0
2018-Mar-17 22:29N 29°13' W 094°38'0 0.0
2018-Mar-17 21:59N 29°13' W 094°38'0 0.0
2018-Mar-17 21:26N 29°13' W 094°38'0 0.0
2018-Mar-17 20:59N 29°13' W 094°38'0 0.0
2018-Mar-17 20:29N 29°13' W 094°38'0 0.1
2018-Mar-17 19:59N 29°13' W 094°38'1 1.6
2018-Mar-17 19:30N 29°12' W 094°38'4 7.7
2018-Mar-17 19:00N 29°09' W 094°37'5 9.4
2018-Mar-17 18:29N 29°04' W 094°35'4 7.4
2018-Mar-17 17:59N 29°01' W 094°33'510.6
2018-Mar-17 17:29N 28°58' W 094°28'  
Track history (hours):
 
Tides and Currents Weather Stations Pressure Air Temp Water Temp Dewpoint Dewpoint Depression Visibility Wind Speed Wind Dir Waves Ship Positions

Eagle Torrance

Last reported at 2018-Mar-27 17:18 UTC. Time now 2018-Apr-24 12:43 UTC.
Position N 27°49' W 092°56'.
Warning: this ship's position is 27 days out of date.

Length 246 m; draft 8.5 m.

Type: Tanker. MMSI: 565526000.

Date/timePositionNaut miles runAvg speedWind from/ knotsBaromVisibWave heightAir tempDewpointWater temp
2018-Mar-27 17:18N 27°49' W 092°56'411.1
2018-Mar-27 16:58N 27°49' W 093°00'911.2
2018-Mar-27 16:07N 27°48' W 093°11'211.1
2018-Mar-27 15:58N 27°48' W 093°13'510.9
2018-Mar-27 15:30N 27°48' W 093°19'610.9
2018-Mar-27 14:59N 27°47' W 093°25'510.6
2018-Mar-27 14:29N 27°47' W 093°31'510.8
2018-Mar-27 14:01N 27°46' W 093°37'610.8
2018-Mar-27 13:29N 27°46' W 093°43'711.1
2018-Mar-27 12:52N 27°45' W 093°51'411.3
2018-Mar-27 12:29N 27°45' W 093°56'611.3
2018-Mar-27 11:57N 27°44' W 094°02'611.2
2018-Mar-27 11:27N 27°44' W 094°09'511.4
2018-Mar-27 11:00N 27°44' W 094°14'611.5
2018-Mar-27 10:30N 27°44' W 094°21'5 7.9
2018-Mar-27 09:52N 27°47' W 094°25'411.1
2018-Mar-27 09:29N 27°51' W 094°25'611.1
2018-Mar-27 08:59N 27°57' W 094°25'511.2
2018-Mar-27 08:30N 28°02' W 094°25'611.2
2018-Mar-27 08:00N 28°07' W 094°26'611.2
2018-Mar-27 07:30N 28°13' W 094°25'611.3
2018-Mar-27 07:00N 28°19' W 094°25'611.2
2018-Mar-27 06:26N 28°25' W 094°25'511.4
2018-Mar-27 06:00N 28°30' W 094°25'611.4
2018-Mar-27 05:31N 28°36' W 094°25'611.5
2018-Mar-27 05:00N 28°41' W 094°26'611.8
2018-Mar-27 04:31N 28°47' W 094°25'611.8
2018-Mar-27 04:00N 28°53' W 094°25'612.7
2018-Mar-27 03:30N 28°60' W 094°25'611.8
2018-Mar-27 03:01N 29°05' W 094°25'3 6.2
2018-Mar-27 02:31N 29°08' W 094°28'5 9.7
2018-Mar-27 02:00N 29°12' W 094°31'510.1
2018-Mar-27 01:31N 29°15' W 094°35'510.1
2018-Mar-27 00:59N 29°19' W 094°39'610.8
2018-Mar-27 00:28N 29°21' W 094°45'510.0
2018-Mar-27 00:00N 29°24' W 094°49'611.0
2018-Mar-26 23:30N 29°29' W 094°52'511.0
2018-Mar-26 23:01N 29°34' W 094°55'510.4
2018-Mar-26 22:31N 29°38' W 094°58'4 8.8
2018-Mar-26 22:00N 29°42' W 095°00'3 6.7
2018-Mar-26 21:31N 29°44' W 095°03'2 4.9
2018-Mar-26 21:00N 29°45' W 095°06'2 3.7
2018-Mar-26 20:31N 29°44' W 095°08'0 0.0
2018-Mar-26 02:18N 29°44' W 095°08'0 0.0
2018-Mar-24 19:24N 29°44' W 095°08'0 0.4
2018-Mar-24 19:00N 29°44' W 095°07'1 2.8
2018-Mar-24 18:30N 29°45' W 095°06'2 4.1
2018-Mar-24 18:00N 29°45' W 095°04'3 5.8
2018-Mar-24 17:30N 29°43' W 095°01'4 7.4
2018-Mar-24 17:01N 29°40' W 094°59'4 8.6
2018-Mar-24 16:31N 29°36' W 094°57'5 9.8
2018-Mar-24 16:00N 29°32' W 094°54'510.6
2018-Mar-24 15:30N 29°27' W 094°51'611.6
2018-Mar-24 15:00N 29°22' W 094°48'611.3
2018-Mar-24 14:30N 29°20' W 094°41'510.8
2018-Mar-24 14:00N 29°18' W 094°36'4 7.9
2018-Mar-24 13:30N 29°15' W 094°33'3 6.5
2018-Mar-24 13:00N 29°13' W 094°30'2 4.1
2018-Mar-24 12:31N 29°13' W 094°32'3 6.5
2018-Mar-24 12:00N 29°14' W 094°35'2 4.4
2018-Mar-24 11:30N 29°13' W 094°38'0 0.0
2018-Mar-24 11:00N 29°13' W 094°38'0 0.0
2018-Mar-24 10:30N 29°13' W 094°38'0 0.0
2018-Mar-24 09:59N 29°13' W 094°38'0 0.0
2018-Mar-24 09:29N 29°13' W 094°38'0 0.0
2018-Mar-24 08:59N 29°13' W 094°38'0 0.0
2018-Mar-24 08:30N 29°13' W 094°38'0 0.0
2018-Mar-24 08:00N 29°13' W 094°38'0 0.0
2018-Mar-24 07:30N 29°13' W 094°38'0 0.0
2018-Mar-24 07:00N 29°13' W 094°38'0 0.0
2018-Mar-24 06:30N 29°13' W 094°38'0 0.0
2018-Mar-24 06:00N 29°13' W 094°38'0 0.0
2018-Mar-24 05:30N 29°13' W 094°38'0 0.0
2018-Mar-24 05:00N 29°13' W 094°38'0 0.0
2018-Mar-24 04:29N 29°13' W 094°38'0 0.0
2018-Mar-24 03:59N 29°13' W 094°38'0 0.0
2018-Mar-24 03:29N 29°13' W 094°38'0 0.0
2018-Mar-24 03:00N 29°13' W 094°38'0 0.0
2018-Mar-24 02:30N 29°13' W 094°38'0 0.0
2018-Mar-24 02:00N 29°13' W 094°38'0 0.0
2018-Mar-24 01:26N 29°13' W 094°38'0 0.0
2018-Mar-24 00:59N 29°13' W 094°38'0 0.0
2018-Mar-24 00:29N 29°13' W 094°38'0 0.0
2018-Mar-23 23:59N 29°13' W 094°38'0 0.0
2018-Mar-23 23:30N 29°13' W 094°38'0 0.0
2018-Mar-23 22:59N 29°13' W 094°38'0 0.0
2018-Mar-23 22:26N 29°13' W 094°38'0 0.0
2018-Mar-23 22:00N 29°13' W 094°38'0 0.0
2018-Mar-23 21:30N 29°13' W 094°38'0 0.0
2018-Mar-23 21:00N 29°13' W 094°38'0 0.0
2018-Mar-23 20:29N 29°13' W 094°38'0 0.0
2018-Mar-23 19:59N 29°13' W 094°38'0 0.0
2018-Mar-23 19:29N 29°13' W 094°38'0 0.0
2018-Mar-23 19:00N 29°13' W 094°38'0 0.0
2018-Mar-23 18:27N 29°13' W 094°38'0 0.0
2018-Mar-23 17:56N 29°13' W 094°38'0 0.0
2018-Mar-23 17:29N 29°13' W 094°38'0 0.0
2018-Mar-23 16:59N 29°13' W 094°38'0 0.0
2018-Mar-23 16:24N 29°13' W 094°38'0 0.0
2018-Mar-23 16:00N 29°13' W 094°38'0 0.0
2018-Mar-23 15:26N 29°13' W 094°38'0 0.0
2018-Mar-23 14:59N 29°13' W 094°38'0 0.0
2018-Mar-23 14:29N 29°13' W 094°38'0 0.0
2018-Mar-23 13:59N 29°13' W 094°38'0 0.0
2018-Mar-23 13:29N 29°13' W 094°38'0 0.0
2018-Mar-23 12:57N 29°13' W 094°38'0 0.0
2018-Mar-23 12:29N 29°13' W 094°38'0 0.0
2018-Mar-23 11:59N 29°13' W 094°38'0 0.0
2018-Mar-23 11:29N 29°13' W 094°38'0 0.0
2018-Mar-23 10:59N 29°13' W 094°38'0 0.0
2018-Mar-23 10:29N 29°13' W 094°38'0 0.0
2018-Mar-23 09:59N 29°13' W 094°38'0 0.1
2018-Mar-23 09:30N 29°13' W 094°38'0 0.0
2018-Mar-23 09:00N 29°13' W 094°38'0 0.0
2018-Mar-23 08:30N 29°13' W 094°38'0 0.0
2018-Mar-23 08:00N 29°13' W 094°38'0 0.0
2018-Mar-23 07:29N 29°13' W 094°38'0 0.0
2018-Mar-23 06:59N 29°13' W 094°38'0 0.1
2018-Mar-23 06:29N 29°13' W 094°38'0 0.0
2018-Mar-23 05:59N 29°13' W 094°38'0 0.0
2018-Mar-23 05:30N 29°13' W 094°38'0 0.0
2018-Mar-23 04:59N 29°13' W 094°38'0 0.0
2018-Mar-23 04:29N 29°13' W 094°38'0 0.0
2018-Mar-23 03:57N 29°13' W 094°38'0 0.0
2018-Mar-23 03:29N 29°13' W 094°38'0 0.0
2018-Mar-23 03:00N 29°13' W 094°38'0 0.0
2018-Mar-23 02:29N 29°13' W 094°38'0 0.0
2018-Mar-23 01:59N 29°13' W 094°38'0 0.0
2018-Mar-23 01:29N 29°13' W 094°38'0 0.0
2018-Mar-23 00:59N 29°13' W 094°38'0 0.0
2018-Mar-23 00:29N 29°13' W 094°38'0 0.0
2018-Mar-22 23:59N 29°13' W 094°38'0 0.0
2018-Mar-22 23:27N 29°13' W 094°38'0 0.0
2018-Mar-22 22:56N 29°13' W 094°38'0 0.0
2018-Mar-22 22:29N 29°13' W 094°38'0 0.0
2018-Mar-22 21:59N 29°13' W 094°38'0 0.0
2018-Mar-22 21:29N 29°13' W 094°38'0 0.0
2018-Mar-22 20:50N 29°13' W 094°38'0 0.0
2018-Mar-22 20:29N 29°13' W 094°38'0 0.0
2018-Mar-22 19:53N 29°13' W 094°38'0 0.0
2018-Mar-22 19:29N 29°13' W 094°38'0 0.0
2018-Mar-22 18:56N 29°13' W 094°38'0 0.0
2018-Mar-22 18:29N 29°13' W 094°38'0 0.0
2018-Mar-22 17:59N 29°13' W 094°38'0 0.0
2018-Mar-22 17:26N 29°13' W 094°38'0 0.0
2018-Mar-22 16:59N 29°13' W 094°38'0 0.0
2018-Mar-22 16:29N 29°13' W 094°38'0 0.0
2018-Mar-22 15:59N 29°13' W 094°38'0 0.0
2018-Mar-22 15:29N 29°13' W 094°38'0 0.0
2018-Mar-22 14:53N 29°13' W 094°38'0 0.0
2018-Mar-22 14:29N 29°13' W 094°38'0 0.0
2018-Mar-22 14:00N 29°13' W 094°38'0 0.0
2018-Mar-22 13:26N 29°13' W 094°38'0 0.0
2018-Mar-22 12:59N 29°13' W 094°38'0 0.0
2018-Mar-22 12:29N 29°13' W 094°38'0 0.1
2018-Mar-22 11:59N 29°13' W 094°38'0 0.1
2018-Mar-22 10:59N 29°13' W 094°38'0 0.0
2018-Mar-22 10:29N 29°13' W 094°38'0 0.0
2018-Mar-22 09:59N 29°13' W 094°38'0 0.0
2018-Mar-22 09:26N 29°13' W 094°38'0 0.0
2018-Mar-22 09:00N 29°13' W 094°38'0 0.0
2018-Mar-22 08:29N 29°13' W 094°38'0 0.0
2018-Mar-22 07:59N 29°13' W 094°38'0 0.0
2018-Mar-22 07:29N 29°13' W 094°38'0 0.0
2018-Mar-22 06:59N 29°13' W 094°38'0 0.0
2018-Mar-22 06:29N 29°13' W 094°38'0 0.1
2018-Mar-22 05:59N 29°13' W 094°38'0 0.1
2018-Mar-22 05:29N 29°13' W 094°38'0 0.0
2018-Mar-22 05:00N 29°13' W 094°38'0 0.0
2018-Mar-22 04:29N 29°13' W 094°38'0 0.1
2018-Mar-22 03:59N 29°13' W 094°38'0 0.0
2018-Mar-22 03:30N 29°13' W 094°38'0 0.0
2018-Mar-22 02:50N 29°13' W 094°38'0 0.0
2018-Mar-22 02:29N 29°13' W 094°38'0 0.0
2018-Mar-22 01:59N 29°13' W 094°38'0 0.0
2018-Mar-22 01:29N 29°13' W 094°38'0 0.0
2018-Mar-22 01:00N 29°13' W 094°38'0 0.0
2018-Mar-22 00:26N 29°13' W 094°38'0 0.0
2018-Mar-21 23:59N 29°13' W 094°38'0 0.0
2018-Mar-21 23:29N 29°13' W 094°38'0 0.0
2018-Mar-21 22:59N 29°13' W 094°38'0 0.0
2018-Mar-21 22:29N 29°13' W 094°38'0 0.0
2018-Mar-21 21:59N 29°13' W 094°38'0 0.0
2018-Mar-21 21:30N 29°13' W 094°38'0 0.0
2018-Mar-21 20:59N 29°13' W 094°38'0 0.0
2018-Mar-21 20:29N 29°13' W 094°38'0 0.0
2018-Mar-21 19:59N 29°13' W 094°38'0 0.0
2018-Mar-21 19:29N 29°13' W 094°38'0 0.0
2018-Mar-21 19:00N 29°13' W 094°38'0 0.1
2018-Mar-21 18:26N 29°13' W 094°38'0 0.0
2018-Mar-21 17:59N 29°13' W 094°38'0 0.0
2018-Mar-21 17:20N 29°13' W 094°38'0 0.0
2018-Mar-21 16:59N 29°13' W 094°38'0 0.1
2018-Mar-21 16:29N 29°13' W 094°38'0 0.1
2018-Mar-21 15:59N 29°13' W 094°38'0 0.0
2018-Mar-21 15:30N 29°13' W 094°38'0 0.1
2018-Mar-21 14:59N 29°13' W 094°38'0 0.1
2018-Mar-21 14:29N 29°13' W 094°38'0 0.0
2018-Mar-21 13:59N 29°13' W 094°38'0 0.0
2018-Mar-21 13:26N 29°13' W 094°38'0 0.0
2018-Mar-21 12:59N 29°13' W 094°38'0 0.0
2018-Mar-21 12:26N 29°13' W 094°38'0 0.1
2018-Mar-21 11:59N 29°13' W 094°38'0 0.1
2018-Mar-21 11:29N 29°13' W 094°38'0 0.0
2018-Mar-21 10:59N 29°13' W 094°38'0 0.0
2018-Mar-21 10:29N 29°13' W 094°38'0 0.0
2018-Mar-21 09:59N 29°13' W 094°38'0 0.0
2018-Mar-21 09:26N 29°13' W 094°38'0 0.0
2018-Mar-21 08:59N 29°13' W 094°38'0 0.0
2018-Mar-21 08:29N 29°13' W 094°38'0 0.0
2018-Mar-21 07:59N 29°13' W 094°38'0 0.0
2018-Mar-21 07:29N 29°13' W 094°38'0 0.0
2018-Mar-21 06:59N 29°13' W 094°38'0 0.0
2018-Mar-21 06:29N 29°13' W 094°38'0 0.0
2018-Mar-21 05:59N 29°13' W 094°38'0 0.0
2018-Mar-21 05:30N 29°13' W 094°38'0 0.0
2018-Mar-21 04:59N 29°13' W 094°38'0 0.0
2018-Mar-21 04:29N 29°13' W 094°38'0 0.0
2018-Mar-21 04:00N 29°13' W 094°38'0 0.0
2018-Mar-21 03:29N 29°13' W 094°38'0 0.0
2018-Mar-21 02:59N 29°13' W 094°38'0 0.0
2018-Mar-21 02:26N 29°13' W 094°38'0 0.0
2018-Mar-21 01:59N 29°13' W 094°38'0 0.0
2018-Mar-21 01:27N 29°13' W 094°38'0 0.0
2018-Mar-21 01:00N 29°13' W 094°38'0 0.0
2018-Mar-21 00:26N 29°13' W 094°38'0 0.0
2018-Mar-20 23:59N 29°13' W 094°38'0 0.0
2018-Mar-20 23:29N 29°13' W 094°38'0 0.0
2018-Mar-20 22:59N 29°13' W 094°38'0 0.0
2018-Mar-20 22:29N 29°13' W 094°38'0 0.0
2018-Mar-20 21:59N 29°13' W 094°38'0 0.0
2018-Mar-20 21:29N 29°13' W 094°38'0 0.0
2018-Mar-20 20:50N 29°13' W 094°38'0 0.0
2018-Mar-20 20:29N 29°13' W 094°38'0 0.0
2018-Mar-20 19:59N 29°13' W 094°38'0 0.0
2018-Mar-20 19:26N 29°13' W 094°38'0 0.0
2018-Mar-20 18:59N 29°13' W 094°38'0 0.0
2018-Mar-20 18:29N 29°13' W 094°38'0 0.1
2018-Mar-20 17:59N 29°13' W 094°38'0 0.1
2018-Mar-20 17:29N 29°13' W 094°38'0 0.0
2018-Mar-20 16:59N 29°13' W 094°38'0 0.0
2018-Mar-20 16:30N 29°13' W 094°38'0 0.0
2018-Mar-20 15:56N 29°13' W 094°38'0 0.0
2018-Mar-20 15:29N 29°13' W 094°38'0 0.1
2018-Mar-20 14:50N 29°13' W 094°38'0 0.0
2018-Mar-20 14:29N 29°13' W 094°38'0 0.0
2018-Mar-20 13:59N 29°13' W 094°38'0 0.1
2018-Mar-20 13:30N 29°13' W 094°38'0 0.0
2018-Mar-20 12:53N 29°13' W 094°38'0 0.0
2018-Mar-20 12:29N 29°13' W 094°38'0 0.0
2018-Mar-20 11:59N 29°13' W 094°38'0 0.0
2018-Mar-20 11:29N 29°13' W 094°38'0 0.0
2018-Mar-20 10:59N 29°13' W 094°38'0 0.0
2018-Mar-20 10:29N 29°13' W 094°38'0 0.0
2018-Mar-20 09:59N 29°13' W 094°38'0 0.0
2018-Mar-20 09:29N 29°13' W 094°38'0 0.0
2018-Mar-20 09:00N 29°13' W 094°38'0 0.0
2018-Mar-20 08:26N 29°13' W 094°38'0 0.0
2018-Mar-20 08:00N 29°13' W 094°38'0 0.0
2018-Mar-20 07:29N 29°13' W 094°38'0 0.0
2018-Mar-20 06:59N 29°13' W 094°38'0 0.0
2018-Mar-20 06:29N 29°13' W 094°38'0 0.0
2018-Mar-20 06:00N 29°13' W 094°38'0 0.1
2018-Mar-20 05:26N 29°13' W 094°38'0 0.1
2018-Mar-20 04:59N 29°13' W 094°38'0 0.0
2018-Mar-20 04:29N 29°13' W 094°38'0 0.0
2018-Mar-20 03:59N 29°13' W 094°38'0 0.0
2018-Mar-20 03:29N 29°13' W 094°38'0 0.0
2018-Mar-20 02:59N 29°13' W 094°38'0 0.0
2018-Mar-20 02:29N 29°13' W 094°38'0 0.0
2018-Mar-20 01:59N 29°13' W 094°38'0 0.0
2018-Mar-20 01:29N 29°13' W 094°38'0 0.0
2018-Mar-20 00:59N 29°13' W 094°38'0 0.0
2018-Mar-20 00:29N 29°13' W 094°38'0 0.0
2018-Mar-19 23:59N 29°13' W 094°38'0 0.0
2018-Mar-19 23:29N 29°13' W 094°38'0 0.0
2018-Mar-19 22:59N 29°13' W 094°38'0 0.1
2018-Mar-19 22:29N 29°13' W 094°38'0 0.0
2018-Mar-19 21:59N 29°13' W 094°38'0 0.0
2018-Mar-19 21:29N 29°13' W 094°38'0 0.0
2018-Mar-19 20:59N 29°13' W 094°38'0 0.0
2018-Mar-19 20:29N 29°13' W 094°38'0 0.0
2018-Mar-19 19:59N 29°13' W 094°38'0 0.0
2018-Mar-19 19:30N 29°13' W 094°38'0 0.0
2018-Mar-19 18:56N 29°13' W 094°38'0 0.0
2018-Mar-19 18:29N 29°13' W 094°38'0 0.0
2018-Mar-19 17:59N 29°13' W 094°38'0 0.0
2018-Mar-19 17:29N 29°13' W 094°38'0 0.0
2018-Mar-19 16:57N 29°13' W 094°38'0 0.0
2018-Mar-19 16:27N 29°13' W 094°38'0 0.0
2018-Mar-19 15:59N 29°13' W 094°38'0 0.0
2018-Mar-19 15:29N 29°13' W 094°38'0 0.0
2018-Mar-19 14:59N 29°13' W 094°38'0 0.0
2018-Mar-19 14:29N 29°13' W 094°38'0 0.1
2018-Mar-19 13:59N 29°13' W 094°38'0 0.0
2018-Mar-19 13:29N 29°13' W 094°38'0 0.2
2018-Mar-19 12:59N 29°13' W 094°38'0 0.1
2018-Mar-19 12:26N 29°13' W 094°38'0 0.0
2018-Mar-19 11:59N 29°13' W 094°38'0 0.1
2018-Mar-19 11:29N 29°13' W 094°38'0 0.1
2018-Mar-19 10:59N 29°13' W 094°38'0 0.1
2018-Mar-19 10:29N 29°13' W 094°38'0 0.0
2018-Mar-19 09:59N 29°13' W 094°38'0 0.0
2018-Mar-19 09:29N 29°13' W 094°38'0 0.0
2018-Mar-19 08:59N 29°13' W 094°38'0 0.0
2018-Mar-19 08:29N 29°13' W 094°38'0 0.0
2018-Mar-19 07:59N 29°13' W 094°38'0 0.0
2018-Mar-19 07:29N 29°13' W 094°38'0 0.0
2018-Mar-19 06:59N 29°13' W 094°38'0 0.0
2018-Mar-19 06:29N 29°13' W 094°38'0 0.1
2018-Mar-19 05:59N 29°13' W 094°38'0 0.0
2018-Mar-19 05:29N 29°13' W 094°38'0 0.0
2018-Mar-19 04:59N 29°13' W 094°38'0 0.0
2018-Mar-19 04:29N 29°13' W 094°38'0 0.0
2018-Mar-19 04:00N 29°13' W 094°38'0 0.0
2018-Mar-19 03:27N 29°13' W 094°38'0 0.0
2018-Mar-19 02:56N 29°13' W 094°38'0 0.0
2018-Mar-19 02:29N 29°13' W 094°38'0 0.0
2018-Mar-19 01:59N 29°13' W 094°38'0 0.0
2018-Mar-19 01:29N 29°13' W 094°38'0 0.0
2018-Mar-19 00:59N 29°13' W 094°38'0 0.0
2018-Mar-19 00:29N 29°13' W 094°38'0 0.0
2018-Mar-18 23:59N 29°13' W 094°38'0 0.0
2018-Mar-18 23:29N 29°13' W 094°38'0 0.0
2018-Mar-18 22:57N 29°13' W 094°38'0 0.0
2018-Mar-18 22:27N 29°13' W 094°38'0 0.1
2018-Mar-18 21:59N 29°13' W 094°38'0 0.1
2018-Mar-18 21:29N 29°13' W 094°38'0 0.0
2018-Mar-18 20:59N 29°13' W 094°38'0 0.0
2018-Mar-18 20:29N 29°13' W 094°38'0 0.0
2018-Mar-18 19:59N 29°13' W 094°38'0 0.1
2018-Mar-18 19:29N 29°13' W 094°38'0 0.0
2018-Mar-18 18:59N 29°13' W 094°38'0 0.0
2018-Mar-18 18:29N 29°13' W 094°38'0 0.0
2018-Mar-18 17:59N 29°13' W 094°38'0 0.0
2018-Mar-18 17:29N 29°13' W 094°38'0 0.0
2018-Mar-18 16:59N 29°13' W 094°38'0 0.0
2018-Mar-18 16:29N 29°13' W 094°38'0 0.0
2018-Mar-18 15:59N 29°13' W 094°38'0 0.0
2018-Mar-18 15:30N 29°13' W 094°38'0 0.0
2018-Mar-18 14:59N 29°13' W 094°38'0 0.0
2018-Mar-18 14:29N 29°13' W 094°38'0 0.0
2018-Mar-18 13:59N 29°13' W 094°38'0 0.0
2018-Mar-18 13:29N 29°13' W 094°38'0 0.0
2018-Mar-18 12:56N 29°13' W 094°38'0 0.1
2018-Mar-18 12:23N 29°13' W 094°38'0 0.0
2018-Mar-18 11:59N 29°13' W 094°38'0 0.0
2018-Mar-18 11:29N 29°13' W 094°38'0 0.0
2018-Mar-18 10:59N 29°13' W 094°38'0 0.0
2018-Mar-18 10:29N 29°13' W 094°38'0 0.0
2018-Mar-18 09:59N 29°13' W 094°38'0 0.0
2018-Mar-18 09:29N 29°13' W 094°38'0 0.0
2018-Mar-18 09:00N 29°13' W 094°38'0 0.0
2018-Mar-18 08:29N 29°13' W 094°38'0 0.0
2018-Mar-18 07:59N 29°13' W 094°38'0 0.0
2018-Mar-18 07:29N 29°13' W 094°38'0 0.0
2018-Mar-18 06:59N 29°13' W 094°38'0 0.0
2018-Mar-18 06:29N 29°13' W 094°38'0 0.0
2018-Mar-18 05:59N 29°13' W 094°38'0 0.0
2018-Mar-18 05:29N 29°13' W 094°38'0 0.0
2018-Mar-18 04:59N 29°13' W 094°38'0 0.0
2018-Mar-18 04:29N 29°13' W 094°38'0 0.0
2018-Mar-18 03:59N 29°13' W 094°38'0 0.0
2018-Mar-18 03:29N 29°13' W 094°38'0 0.0
2018-Mar-18 02:59N 29°13' W 094°38'0 0.0
2018-Mar-18 02:29N 29°13' W 094°38'0 0.0
2018-Mar-18 01:59N 29°13' W 094°38'0 0.0
2018-Mar-18 01:29N 29°13' W 094°38'0 0.1
2018-Mar-18 00:59N 29°13' W 094°38'0 0.0
2018-Mar-18 00:29N 29°13' W 094°38'0 0.0
2018-Mar-18 00:00N 29°13' W 094°38'0 0.0
2018-Mar-17 23:29N 29°13' W 094°38'0 0.0
2018-Mar-17 22:59N 29°13' W 094°38'0 0.0
2018-Mar-17 22:29N 29°13' W 094°38'0 0.0
2018-Mar-17 21:59N 29°13' W 094°38'0 0.0
2018-Mar-17 21:26N 29°13' W 094°38'0 0.0
2018-Mar-17 20:59N 29°13' W 094°38'0 0.0
2018-Mar-17 20:29N 29°13' W 094°38'0 0.1
2018-Mar-17 19:59N 29°13' W 094°38'1 1.6
2018-Mar-17 19:30N 29°12' W 094°38'4 7.7
2018-Mar-17 19:00N 29°09' W 094°37'5 9.4
2018-Mar-17 18:29N 29°04' W 094°35'4 7.4
2018-Mar-17 17:59N 29°01' W 094°33'510.6
2018-Mar-17 17:29N 28°58' W 094°28'  

Dump ship's entire track history